createdAt,value
2022-10-05T00:00:27.937Z,5.35
2022-10-05T00:02:55.025Z,5.00
2022-10-05T00:05:24.008Z,5.00
2022-10-05T00:07:51.280Z,5.20
2022-10-05T00:10:19.409Z,5.40
2022-10-05T00:12:46.997Z,5.35
2022-10-05T00:15:15.185Z,5.72
2022-10-05T00:17:42.506Z,5.53
2022-10-05T00:20:20.335Z,6.65
2022-10-05T00:22:47.211Z,6.20
2022-10-05T00:25:19.361Z,5.65
2022-10-05T00:27:49.043Z,6.20
2022-10-05T00:30:17.832Z,5.57
2022-10-05T00:32:45.311Z,5.70
2022-10-05T00:35:12.848Z,5.72
2022-10-05T00:37:39.752Z,5.90
2022-10-05T00:40:31.193Z,5.97
2022-10-05T00:43:10.951Z,6.10
2022-10-05T00:45:52.468Z,6.38
2022-10-05T00:48:28.965Z,5.40
2022-10-05T00:51:07.898Z,6.45
2022-10-05T00:53:43.711Z,6.28
2022-10-05T00:56:35.889Z,6.68
2022-10-05T00:59:29.546Z,7.15
2022-10-05T01:02:16.383Z,6.75
2022-10-05T01:04:57.769Z,6.78
2022-10-05T01:07:33.480Z,6.28
2022-10-05T01:10:09.699Z,6.50
2022-10-05T01:12:56.456Z,6.30
2022-10-05T01:15:39.198Z,6.30
2022-10-05T01:18:14.711Z,6.18
2022-10-05T01:21:02.580Z,6.22
2022-10-05T01:24:06.114Z,6.47
2022-10-05T01:27:06.331Z,6.22
2022-10-05T01:29:35.926Z,6.30
2022-10-05T01:32:21.142Z,5.78
2022-10-05T01:35:25.675Z,6.38
2022-10-05T01:38:11.693Z,5.57
2022-10-05T01:40:44.133Z,6.28
2022-10-05T01:43:39.641Z,6.15
2022-10-05T01:46:06.244Z,5.78
2022-10-05T01:48:51.689Z,6.38
2022-10-05T01:51:37.912Z,6.85
2022-10-05T01:54:10.335Z,5.88
2022-10-05T01:56:44.093Z,6.20
2022-10-05T01:59:37.278Z,6.25
2022-10-05T02:02:23.738Z,6.20
2022-10-05T02:05:18.527Z,6.35
2022-10-05T02:08:00.784Z,6.43
2022-10-05T02:10:35.749Z,6.32
2022-10-05T02:13:34.614Z,7.47
2022-10-05T02:16:07.516Z,8.05
2022-10-05T02:18:42.241Z,6.90
2022-10-05T02:21:08.790Z,7.40
2022-10-05T02:23:37.010Z,6.63
2022-10-05T02:26:03.978Z,7.07
2022-10-05T02:28:44.773Z,6.80
2022-10-05T02:31:13.159Z,6.97
2022-10-05T02:33:39.769Z,8.00
2022-10-05T02:36:23.219Z,6.57
2022-10-05T02:38:59.341Z,7.63
2022-10-05T02:41:28.879Z,7.13
2022-10-05T02:44:11.286Z,7.43
2022-10-05T02:47:05.330Z,6.73
2022-10-05T02:49:40.668Z,6.35
2022-10-05T02:52:14.294Z,6.38
2022-10-05T02:55:06.587Z,6.20
2022-10-05T02:57:42.970Z,6.20
2022-10-05T03:00:16.379Z,6.40
2022-10-05T03:02:52.077Z,6.10
2022-10-05T03:05:43.102Z,5.90
2022-10-05T03:08:36.508Z,5.82
2022-10-05T03:11:39.274Z,6.25
2022-10-05T03:14:05.766Z,5.93
2022-10-05T03:16:44.681Z,5.90
2022-10-05T03:19:36.973Z,6.38
2022-10-05T03:22:09.727Z,6.40
2022-10-05T03:25:18.187Z,6.80
2022-10-05T03:28:23.074Z,7.18
2022-10-05T03:31:05.305Z,7.22
2022-10-05T03:33:56.476Z,7.00
2022-10-05T03:36:42.298Z,6.63
2022-10-05T03:39:28.041Z,6.15
2022-10-05T03:42:22.791Z,6.28
2022-10-05T03:45:14.464Z,7.07
2022-10-05T03:47:47.009Z,7.10
2022-10-05T03:50:28.634Z,7.03
2022-10-05T03:52:58.114Z,7.38
2022-10-05T03:55:43.485Z,7.70
2022-10-05T03:58:21.474Z,6.82
2022-10-05T04:00:49.939Z,6.82
2022-10-05T04:03:21.514Z,6.65
2022-10-05T04:05:54.163Z,7.45
2022-10-05T04:08:26.961Z,6.72
2022-10-05T04:10:55.833Z,7.25
2022-10-05T04:13:37.769Z,6.05
2022-10-05T04:16:09.075Z,6.57
2022-10-05T04:18:41.982Z,6.47
2022-10-05T04:21:25.559Z,6.13
2022-10-05T04:24:17.210Z,5.90
2022-10-05T04:26:55.902Z,6.07
2022-10-05T04:29:47.100Z,6.50
2022-10-05T04:32:31.341Z,6.43
2022-10-05T04:35:06.887Z,6.47
2022-10-05T04:37:58.066Z,6.15
2022-10-05T04:40:39.832Z,6.55
2022-10-05T04:43:40.526Z,6.03
2022-10-05T04:46:24.788Z,6.95
2022-10-05T04:49:08.603Z,7.35
2022-10-05T04:51:53.441Z,7.28
2022-10-05T04:54:41.829Z,7.53
2022-10-05T04:57:33.356Z,7.15
2022-10-05T05:00:17.367Z,9.05
2022-10-05T05:02:59.242Z,10.05
2022-10-05T05:05:32.000Z,9.48
2022-10-05T05:08:12.682Z,8.18
2022-10-05T05:10:59.433Z,7.43
2022-10-05T05:14:20.436Z,6.50
2022-10-05T05:16:53.121Z,6.45
2022-10-05T05:19:35.153Z,6.47
2022-10-05T05:22:12.680Z,6.53
2022-10-05T05:24:42.050Z,6.03
2022-10-05T05:27:20.653Z,7.32
2022-10-05T05:30:02.849Z,7.07
2022-10-05T05:32:44.963Z,6.90
2022-10-05T05:35:25.675Z,7.50
2022-10-05T05:38:14.116Z,7.32
2022-10-05T05:40:48.331Z,7.65
2022-10-05T05:43:24.712Z,8.07
2022-10-05T05:46:04.323Z,7.63
2022-10-05T05:48:35.394Z,7.47
2022-10-05T05:51:08.665Z,7.72
2022-10-05T05:53:47.454Z,8.50
2022-10-05T05:56:14.893Z,7.20
2022-10-05T05:58:41.382Z,7.93
2022-10-05T06:01:32.063Z,7.18
2022-10-05T06:04:00.031Z,7.50
2022-10-05T06:06:30.554Z,7.18
2022-10-05T06:08:58.425Z,6.60
2022-10-05T06:11:47.143Z,6.60
2022-10-05T06:14:32.435Z,7.07
2022-10-05T06:17:18.829Z,6.72
2022-10-05T06:19:46.069Z,6.75
2022-10-05T06:22:25.955Z,6.63
2022-10-05T06:24:56.553Z,6.75
2022-10-05T06:27:26.877Z,6.22
2022-10-05T06:29:57.080Z,6.30
2022-10-05T06:32:30.511Z,6.57
2022-10-05T06:35:24.246Z,6.57
2022-10-05T06:38:00.284Z,6.82
2022-10-05T06:40:31.376Z,7.45
2022-10-05T06:43:35.816Z,7.65
2022-10-05T06:46:18.530Z,7.35
2022-10-05T06:49:00.345Z,7.30
2022-10-05T06:51:35.249Z,8.15
2022-10-05T06:54:27.585Z,7.30
2022-10-05T06:57:03.344Z,8.77
2022-10-05T06:59:49.866Z,8.32
2022-10-05T07:02:34.814Z,7.90
2022-10-05T07:05:28.859Z,8.00
2022-10-05T07:07:55.892Z,8.13
2022-10-05T07:10:29.205Z,7.22
2022-10-05T07:13:39.534Z,7.97
2022-10-05T07:16:17.095Z,7.45
2022-10-05T07:19:20.770Z,6.53
2022-10-05T07:22:02.659Z,6.25
2022-10-05T07:24:52.336Z,6.25
2022-10-05T07:27:23.201Z,6.18
2022-10-05T07:29:51.795Z,7.25
2022-10-05T07:32:39.447Z,7.38
2022-10-05T07:35:57.861Z,5.80
2022-10-05T07:38:50.175Z,6.53
2022-10-05T07:41:29.277Z,6.43
2022-10-05T07:44:02.391Z,6.68
2022-10-05T07:46:36.730Z,6.70
2022-10-05T07:49:05.990Z,6.63
2022-10-05T07:51:41.475Z,7.05
2022-10-05T07:54:26.960Z,6.57
2022-10-05T07:57:16.476Z,6.80
2022-10-05T07:59:57.105Z,7.60
2022-10-05T08:02:27.425Z,7.00
2022-10-05T08:04:57.118Z,6.47
2022-10-05T08:10:00.064Z,5.45
2022-10-05T08:12:48.887Z,5.78
2022-10-05T08:15:20.985Z,5.05
2022-10-05T08:18:11.454Z,5.77
2022-10-05T08:20:54.947Z,5.32
2022-10-05T08:23:40.890Z,5.78
2022-10-05T08:26:26.218Z,5.35
2022-10-05T08:29:13.909Z,5.25
2022-10-05T08:31:42.138Z,5.53
2022-10-05T08:34:11.666Z,4.88
2022-10-05T08:36:55.917Z,5.00
2022-10-05T08:39:24.307Z,4.78
2022-10-05T08:42:03.017Z,4.90
2022-10-05T08:44:38.526Z,5.20
2022-10-05T08:47:23.666Z,4.75
2022-10-05T08:50:13.089Z,4.82
2022-10-05T08:52:54.937Z,4.30
2022-10-05T08:55:59.143Z,4.38
2022-10-05T08:58:43.691Z,4.72
2022-10-05T09:01:21.077Z,4.10
2022-10-05T09:03:52.194Z,4.63
2022-10-05T09:06:43.792Z,4.72
2022-10-05T09:09:38.048Z,4.55
2022-10-05T09:12:32.524Z,4.18
2022-10-05T09:15:26.009Z,4.18
2022-10-05T09:18:29.973Z,4.47
2022-10-05T09:23:43.503Z,4.07
2022-10-05T09:26:34.821Z,4.00
2022-10-05T09:29:38.462Z,3.47
2022-10-05T09:34:49.269Z,3.45
2022-10-05T09:37:38.479Z,3.72
2022-10-05T09:40:31.254Z,3.90
2022-10-05T09:43:22.644Z,3.70
2022-10-05T09:46:30.676Z,3.88
2022-10-05T09:49:07.462Z,3.67
2022-10-05T09:51:45.789Z,2.97
2022-10-05T09:54:46.074Z,2.85
2022-10-05T09:57:36.353Z,3.03
2022-10-05T10:00:24.026Z,3.00
2022-10-05T10:03:08.839Z,3.03
2022-10-05T10:06:12.757Z,3.00
2022-10-05T10:09:06.422Z,2.90
2022-10-05T10:11:58.479Z,2.80
2022-10-05T10:14:25.039Z,2.92
2022-10-05T10:17:08.254Z,3.10
2022-10-05T10:20:15.936Z,2.72
2022-10-05T10:22:54.879Z,2.55
2022-10-05T10:25:48.091Z,2.60
2022-10-05T10:30:44.562Z,2.28
2022-10-05T10:33:47.934Z,2.55
2022-10-05T10:36:17.517Z,2.40
2022-10-05T10:39:19.349Z,2.92
2022-10-05T10:42:13.808Z,2.15
2022-10-05T10:45:03.135Z,2.10
2022-10-05T10:47:39.024Z,2.40
2022-10-05T10:50:28.490Z,2.15
2022-10-05T10:53:03.266Z,2.63
2022-10-05T10:55:41.445Z,2.20
2022-10-05T10:58:26.278Z,2.10
2022-10-05T11:00:58.510Z,1.80
2022-10-05T11:03:34.630Z,1.70
2022-10-05T11:06:38.843Z,1.90
2022-10-05T11:09:34.461Z,2.05
2022-10-05T11:12:35.251Z,1.40
2022-10-05T11:15:29.359Z,1.70
2022-10-05T11:17:58.495Z,1.95
2022-10-05T11:20:58.727Z,1.60
2022-10-05T11:23:28.265Z,1.70
2022-10-05T11:26:16.144Z,1.92
2022-10-05T11:29:07.719Z,1.58
2022-10-05T11:31:40.504Z,1.60
2022-10-05T11:34:11.402Z,1.60
2022-10-05T11:37:16.427Z,1.73
2022-10-05T11:39:50.162Z,1.60
2022-10-05T11:42:29.705Z,1.40
2022-10-05T11:45:22.100Z,1.42
2022-10-05T11:48:10.675Z,1.88
2022-10-05T11:50:46.198Z,1.48
2022-10-05T11:53:15.555Z,1.98
2022-10-05T11:55:45.001Z,1.40
2022-10-05T11:58:11.543Z,1.83
2022-10-05T12:00:44.130Z,1.60
2022-10-05T12:06:26.028Z,1.35
2022-10-05T12:09:23.489Z,1.27
2022-10-05T12:12:22.426Z,1.58
2022-10-05T12:14:54.947Z,1.70
2022-10-05T12:20:19.936Z,1.20
2022-10-05T12:23:24.789Z,0.98
2022-10-05T12:26:00.303Z,1.48
2022-10-05T12:28:58.260Z,1.08
2022-10-05T12:31:33.964Z,1.20
2022-10-05T12:34:03.389Z,1.27
2022-10-05T12:37:03.010Z,1.00
2022-10-05T12:39:56.810Z,1.20
2022-10-05T12:42:44.096Z,1.25
2022-10-05T12:45:20.180Z,1.02
2022-10-05T12:47:53.613Z,1.10
2022-10-05T12:50:23.453Z,0.93
2022-10-05T12:53:04.785Z,1.23
2022-10-05T12:55:53.532Z,1.67
2022-10-05T12:58:48.445Z,1.02
2022-10-05T13:01:30.946Z,0.88
2022-10-05T13:04:24.286Z,0.90
2022-10-05T13:07:15.326Z,1.17
2022-10-05T13:10:00.576Z,1.27
2022-10-05T13:12:36.058Z,0.95
2022-10-05T13:15:05.848Z,0.90
2022-10-05T13:17:44.729Z,0.82
2022-10-05T13:20:32.744Z,1.00
2022-10-05T13:23:25.553Z,0.80
2022-10-05T13:26:09.131Z,0.70
2022-10-05T13:29:01.729Z,0.80
2022-10-05T13:31:34.543Z,0.55
2022-10-05T13:34:08.011Z,0.90
2022-10-05T13:37:06.195Z,0.90
2022-10-05T13:39:47.918Z,0.85
2022-10-05T13:42:28.357Z,0.90
2022-10-05T13:45:19.528Z,0.70
2022-10-05T13:48:05.416Z,0.80
2022-10-05T13:50:34.683Z,0.65
2022-10-05T13:53:23.945Z,0.65
2022-10-05T13:56:04.972Z,0.68
2022-10-05T13:58:54.192Z,0.70
2022-10-05T14:01:28.983Z,0.77
2022-10-05T14:04:19.133Z,0.70
2022-10-05T14:06:46.580Z,1.02
2022-10-05T14:09:20.122Z,0.68
2022-10-05T14:12:04.817Z,1.13
2022-10-05T14:14:32.715Z,0.50
2022-10-05T14:17:00.849Z,0.60
2022-10-05T14:19:36.376Z,1.40
2022-10-05T14:22:12.417Z,1.40
2022-10-05T14:24:48.669Z,2.00
2022-10-05T14:27:29.063Z,1.50
2022-10-05T14:30:00.852Z,1.52
2022-10-05T14:32:31.793Z,1.45
2022-10-05T14:35:12.839Z,1.70
2022-10-05T14:37:50.652Z,1.70
2022-10-05T14:40:36.728Z,1.50
2022-10-05T14:43:15.538Z,1.83
2022-10-05T14:46:01.590Z,1.40
2022-10-05T14:48:29.847Z,1.35
2022-10-05T14:50:56.575Z,2.15
2022-10-05T14:53:25.087Z,1.90
2022-10-05T14:56:01.595Z,1.70
2022-10-05T14:58:36.895Z,1.80
2022-10-05T15:01:31.034Z,1.63
2022-10-05T15:04:21.159Z,1.95
2022-10-05T15:07:18.673Z,1.80
2022-10-05T15:10:10.033Z,1.95
2022-10-05T15:12:49.810Z,1.92
2022-10-05T15:15:45.300Z,1.50
2022-10-05T15:18:35.066Z,1.95
2022-10-05T15:21:28.637Z,1.73
2022-10-05T15:24:08.577Z,1.70
2022-10-05T15:26:51.026Z,1.90
2022-10-05T15:29:31.430Z,1.90
2022-10-05T15:32:04.721Z,2.10
2022-10-05T15:35:14.090Z,1.75
2022-10-05T15:37:44.877Z,1.88
2022-10-05T15:40:49.842Z,2.22
2022-10-05T15:43:19.466Z,1.83
2022-10-05T15:46:12.531Z,1.65
2022-10-05T15:51:36.409Z,2.22
2022-10-05T15:54:32.042Z,2.17
2022-10-05T15:57:26.134Z,1.92
2022-10-05T16:00:11.190Z,3.03
2022-10-05T16:02:41.758Z,1.95
2022-10-05T16:05:51.837Z,2.08
2022-10-05T16:08:55.649Z,2.03
2022-10-05T16:11:37.538Z,2.30
2022-10-05T16:14:28.080Z,2.33
2022-10-05T16:17:24.436Z,1.90
2022-10-05T16:19:54.105Z,2.58
2022-10-05T16:22:32.657Z,2.00
2022-10-05T16:25:05.977Z,2.28
2022-10-05T16:28:05.755Z,2.25
2022-10-05T16:30:58.923Z,2.30
2022-10-05T16:33:48.021Z,2.03
2022-10-05T16:36:31.889Z,1.92
2022-10-05T16:39:07.236Z,2.20
2022-10-05T16:41:43.005Z,2.13
2022-10-05T16:44:18.422Z,2.00
2022-10-05T16:47:08.174Z,2.30
2022-10-05T16:49:47.223Z,2.15
2022-10-05T16:52:16.036Z,2.42
2022-10-05T16:54:47.654Z,2.85
2022-10-05T16:57:19.283Z,2.45
2022-10-05T16:59:54.935Z,2.53
2022-10-05T17:02:41.757Z,3.30
2022-10-05T17:05:14.368Z,2.40
2022-10-05T17:08:02.262Z,2.33
2022-10-05T17:10:44.623Z,1.98
2022-10-05T17:13:37.438Z,1.88
2022-10-05T17:16:07.098Z,1.35
2022-10-05T17:18:55.378Z,1.60
2022-10-05T17:21:34.822Z,1.30
2022-10-05T17:24:11.885Z,1.52
2022-10-05T17:27:02.523Z,1.60
2022-10-05T17:29:52.515Z,1.33
2022-10-05T17:32:19.066Z,1.90
2022-10-05T17:35:00.628Z,2.08
2022-10-05T17:37:27.156Z,2.00
2022-10-05T17:39:55.227Z,2.00
2022-10-05T17:42:36.914Z,1.75
2022-10-05T17:45:09.718Z,2.13
2022-10-05T17:51:01.586Z,7.47
2022-10-05T17:54:03.564Z,14.82
2022-10-05T17:56:31.614Z,14.63
2022-10-05T17:59:00.545Z,10.23
2022-10-05T18:01:37.626Z,5.60
2022-10-05T18:04:13.370Z,4.30
2022-10-05T18:06:52.752Z,2.08
2022-10-05T18:09:30.846Z,2.67
2022-10-05T18:12:09.173Z,2.15
2022-10-05T18:15:00.708Z,1.88
2022-10-05T18:17:51.389Z,2.63
2022-10-05T18:20:24.018Z,2.10
2022-10-05T18:22:53.154Z,1.90
2022-10-05T18:25:29.568Z,1.98
2022-10-05T18:28:27.268Z,2.20
2022-10-05T18:31:17.622Z,2.03
2022-10-05T18:33:57.664Z,1.63
2022-10-05T18:36:33.104Z,1.77
2022-10-05T18:39:12.183Z,1.52
2022-10-05T18:41:44.533Z,2.17
2022-10-05T18:44:13.801Z,1.30
2022-10-05T18:46:56.091Z,1.48
2022-10-05T18:49:34.629Z,1.40
2022-10-05T18:52:19.965Z,1.52
2022-10-05T18:55:13.393Z,1.90
2022-10-05T19:00:28.173Z,1.77
2022-10-05T19:03:00.235Z,1.55
2022-10-05T19:05:47.489Z,1.87
2022-10-05T19:08:39.803Z,2.13
2022-10-05T19:11:28.372Z,2.08
2022-10-05T19:14:10.710Z,2.20
2022-10-05T19:16:58.704Z,1.70
2022-10-05T19:22:37.055Z,2.33
2022-10-05T19:25:25.429Z,3.10
2022-10-05T19:28:20.608Z,2.40
2022-10-05T19:33:31.359Z,2.15
2022-10-05T19:36:33.375Z,2.15
2022-10-05T19:44:50.441Z,2.15
2022-10-05T19:47:26.089Z,1.90
2022-10-05T19:49:52.646Z,2.28
2022-10-05T19:52:28.652Z,2.33
2022-10-05T19:55:17.768Z,2.10
2022-10-05T19:57:51.310Z,2.28
2022-10-05T20:00:26.625Z,2.60
2022-10-05T20:03:27.628Z,2.22
2022-10-05T20:05:58.904Z,2.70
2022-10-05T20:08:27.276Z,2.80
2022-10-05T20:11:27.403Z,2.38
2022-10-05T20:13:54.931Z,2.25
2022-10-05T20:16:46.875Z,2.25
2022-10-05T20:19:50.369Z,2.30
2022-10-05T20:22:34.472Z,2.28
2022-10-05T20:25:06.364Z,3.17
2022-10-05T20:27:42.204Z,2.83
2022-10-05T20:30:10.526Z,2.08
2022-10-05T20:32:37.105Z,2.05
2022-10-05T20:35:03.956Z,2.20
2022-10-05T20:37:30.621Z,2.00
2022-10-05T20:39:57.156Z,2.33
2022-10-05T20:42:23.925Z,3.08
2022-10-05T20:44:55.831Z,3.28
2022-10-05T20:47:23.772Z,3.03
2022-10-05T20:49:50.479Z,2.55
2022-10-05T20:52:17.061Z,3.05
2022-10-05T20:54:43.639Z,2.78
2022-10-05T20:57:10.521Z,2.70
2022-10-05T20:59:37.454Z,2.70
2022-10-05T21:02:04.777Z,2.90
2022-10-05T21:04:40.356Z,2.88
2022-10-05T21:07:07.695Z,2.78
2022-10-05T21:09:34.269Z,3.13
2022-10-05T21:12:00.874Z,3.85
2022-10-05T21:14:28.236Z,3.17
2022-10-05T21:16:54.821Z,3.95
2022-10-05T21:19:21.351Z,4.07
2022-10-05T21:21:48.013Z,4.03
2022-10-05T21:24:15.156Z,3.72
2022-10-05T21:26:42.419Z,3.53
2022-10-05T21:29:12.460Z,3.50
2022-10-05T21:31:39.742Z,3.03
2022-10-05T21:34:06.337Z,3.40
2022-10-05T21:36:33.175Z,2.72
2022-10-05T21:38:59.780Z,3.05
2022-10-05T21:41:26.387Z,3.33
2022-10-05T21:43:53.063Z,3.05
2022-10-05T21:46:21.991Z,5.38
2022-10-05T21:48:48.686Z,3.40
2022-10-05T21:51:19.276Z,3.35
2022-10-05T21:53:57.276Z,2.58
2022-10-05T21:56:28.336Z,2.60
2022-10-05T21:58:54.873Z,3.25
2022-10-05T22:01:22.860Z,2.88
2022-10-05T22:03:49.910Z,2.20
2022-10-05T22:06:16.510Z,2.40
2022-10-05T22:09:05.261Z,1.92
2022-10-05T22:11:32.403Z,1.92
2022-10-05T22:14:02.660Z,2.05
2022-10-05T22:16:43.542Z,2.60
2022-10-05T22:19:16.413Z,1.90
2022-10-05T22:21:43.050Z,2.28
2022-10-05T22:24:11.707Z,2.00
2022-10-05T22:26:38.857Z,2.13
2022-10-05T22:29:05.428Z,1.73
2022-10-05T22:31:32.106Z,1.80
2022-10-05T22:33:58.722Z,2.22
2022-10-05T22:36:25.316Z,2.38
2022-10-05T22:38:51.886Z,2.47
2022-10-05T22:41:18.542Z,1.85
2022-10-05T22:43:48.714Z,2.00
2022-10-05T22:46:15.552Z,2.00
2022-10-05T22:48:42.120Z,2.05
2022-10-05T22:51:08.942Z,1.60
2022-10-05T22:53:35.540Z,1.92
2022-10-05T22:56:12.598Z,2.10
2022-10-05T22:58:39.726Z,1.83
2022-10-05T23:01:08.607Z,1.92
2022-10-05T23:03:35.518Z,1.70
2022-10-05T23:06:04.465Z,1.95
2022-10-05T23:08:32.218Z,1.80
2022-10-05T23:11:05.025Z,1.90
2022-10-05T23:13:31.735Z,2.63
2022-10-05T23:15:58.348Z,1.83
2022-10-05T23:18:25.554Z,1.90
2022-10-05T23:20:54.318Z,2.10
2022-10-05T23:23:21.556Z,1.80
2022-10-05T23:25:48.097Z,2.08
2022-10-05T23:28:14.750Z,1.90
2022-10-05T23:30:41.982Z,1.80
2022-10-05T23:33:08.755Z,1.85
2022-10-05T23:35:35.340Z,1.70
2022-10-05T23:38:01.928Z,2.15
2022-10-05T23:40:28.531Z,2.00
2022-10-05T23:42:55.099Z,1.83
2022-10-05T23:45:21.960Z,1.65
2022-10-05T23:47:48.622Z,2.00
2022-10-05T23:50:15.313Z,1.88
2022-10-05T23:52:41.899Z,1.52
2022-10-05T23:55:08.772Z,1.90
2022-10-05T23:57:35.418Z,1.55
